sensor_id;sensor_type;location;lat;lon;timestamp;temperature;humidity
70986;DHT22;58645;43.068;25.610;2023-02-25T00:01:19;9.00;99.90
70986;DHT22;58645;43.068;25.610;2023-02-25T00:03:45;9.00;99.90
70986;DHT22;58645;43.068;25.610;2023-02-25T00:06:12;8.90;99.90
70986;DHT22;58645;43.068;25.610;2023-02-25T00:08:42;8.80;99.90
70986;DHT22;58645;43.068;25.610;2023-02-25T00:11:10;8.90;99.90
70986;DHT22;58645;43.068;25.610;2023-02-25T00:13:39;8.80;99.90
70986;DHT22;58645;43.068;25.610;2023-02-25T00:16:06;8.80;99.90
70986;DHT22;58645;43.068;25.610;2023-02-25T00:18:32;8.80;99.90
70986;DHT22;58645;43.068;25.610;2023-02-25T00:20:59;8.90;99.90
70986;DHT22;58645;43.068;25.610;2023-02-25T00:23:24;8.90;99.90
70986;DHT22;58645;43.068;25.610;2023-02-25T00:26:00;8.90;99.90
70986;DHT22;58645;43.068;25.610;2023-02-25T00:28:26;9.00;99.90
70986;DHT22;58645;43.068;25.610;2023-02-25T00:30:52;9.10;99.90
70986;DHT22;58645;43.068;25.610;2023-02-25T00:33:18;9.10;99.90
70986;DHT22;58645;43.068;25.610;2023-02-25T00:35:44;9.20;99.90
70986;DHT22;58645;43.068;25.610;2023-02-25T00:38:10;9.20;99.90
70986;DHT22;58645;43.068;25.610;2023-02-25T00:40:39;9.20;99.90
70986;DHT22;58645;43.068;25.610;2023-02-25T00:43:05;9.20;99.90
70986;DHT22;58645;43.068;25.610;2023-02-25T00:45:31;9.20;99.90
70986;DHT22;58645;43.068;25.610;2023-02-25T00:47:57;9.10;99.90
70986;DHT22;58645;43.068;25.610;2023-02-25T00:50:23;9.10;99.90
70986;DHT22;58645;43.068;25.610;2023-02-25T00:52:49;9.00;99.90
70986;DHT22;58645;43.068;25.610;2023-02-25T00:55:15;9.00;99.90
70986;DHT22;58645;43.068;25.610;2023-02-25T00:57:41;9.00;99.90
70986;DHT22;58645;43.068;25.610;2023-02-25T01:00:07;9.00;99.90
70986;DHT22;58645;43.068;25.610;2023-02-25T01:02:55;9.00;99.90
70986;DHT22;58645;43.068;25.610;2023-02-25T01:05:21;9.00;99.90
70986;DHT22;58645;43.068;25.610;2023-02-25T01:07:47;9.00;99.90
70986;DHT22;58645;43.068;25.610;2023-02-25T01:10:12;9.00;99.90
70986;DHT22;58645;43.068;25.610;2023-02-25T01:12:38;8.90;99.90
70986;DHT22;58645;43.068;25.610;2023-02-25T01:15:04;8.80;99.90
70986;DHT22;58645;43.068;25.610;2023-02-25T01:17:30;8.80;99.90
70986;DHT22;58645;43.068;25.610;2023-02-25T01:19:56;8.80;99.90
70986;DHT22;58645;43.068;25.610;2023-02-25T01:22:22;8.80;99.90
70986;DHT22;58645;43.068;25.610;2023-02-25T01:24:48;8.70;99.90
70986;DHT22;58645;43.068;25.610;2023-02-25T01:27:14;8.70;99.90
70986;DHT22;58645;43.068;25.610;2023-02-25T01:29:40;8.70;99.90
70986;DHT22;58645;43.068;25.610;2023-02-25T01:32:09;8.70;99.90
70986;DHT22;58645;43.068;25.610;2023-02-25T01:34:35;8.70;99.90
70986;DHT22;58645;43.068;25.610;2023-02-25T01:37:02;8.70;99.90
70986;DHT22;58645;43.068;25.610;2023-02-25T01:39:28;8.70;99.90
70986;DHT22;58645;43.068;25.610;2023-02-25T01:41:56;8.80;99.90
70986;DHT22;58645;43.068;25.610;2023-02-25T01:44:30;8.80;99.90
70986;DHT22;58645;43.068;25.610;2023-02-25T01:46:56;8.90;99.90
70986;DHT22;58645;43.068;25.610;2023-02-25T01:51:51;9.00;99.90
70986;DHT22;58645;43.068;25.610;2023-02-25T01:54:19;9.10;99.90
70986;DHT22;58645;43.068;25.610;2023-02-25T01:56:51;9.10;99.90
70986;DHT22;58645;43.068;25.610;2023-02-25T01:59:18;9.10;99.90
70986;DHT22;58645;43.068;25.610;2023-02-25T02:01:45;9.10;99.90
70986;DHT22;58645;43.068;25.610;2023-02-25T02:04:12;9.00;99.90
70986;DHT22;58645;43.068;25.610;2023-02-25T02:06:42;9.00;99.90
70986;DHT22;58645;43.068;25.610;2023-02-25T02:09:15;9.00;99.90
70986;DHT22;58645;43.068;25.610;2023-02-25T02:11:42;9.00;99.90
70986;DHT22;58645;43.068;25.610;2023-02-25T02:14:10;9.10;99.90
70986;DHT22;58645;43.068;25.610;2023-02-25T02:39:25;9.20;99.90
70986;DHT22;58645;43.068;25.610;2023-02-25T02:42:09;9.20;99.90
70986;DHT22;58645;43.068;25.610;2023-02-25T02:44:47;9.20;99.90
70986;DHT22;58645;43.068;25.610;2023-02-25T02:47:39;9.20;99.90
70986;DHT22;58645;43.068;25.610;2023-02-25T02:50:28;9.20;99.90
70986;DHT22;58645;43.068;25.610;2023-02-25T02:52:56;9.10;99.90
70986;DHT22;58645;43.068;25.610;2023-02-25T02:55:29;9.10;99.90
70986;DHT22;58645;43.068;25.610;2023-02-25T02:58:12;9.10;99.90
70986;DHT22;58645;43.068;25.610;2023-02-25T03:00:43;9.10;99.90
70986;DHT22;58645;43.068;25.610;2023-02-25T03:06:15;9.20;99.90
70986;DHT22;58645;43.068;25.610;2023-02-25T03:08:45;9.20;99.90
70986;DHT22;58645;43.068;25.610;2023-02-25T03:11:12;9.20;99.90
70986;DHT22;58645;43.068;25.610;2023-02-25T03:13:39;9.30;99.90
70986;DHT22;58645;43.068;25.610;2023-02-25T03:16:11;9.30;99.90
70986;DHT22;58645;43.068;25.610;2023-02-25T03:19:02;9.30;99.90
70986;DHT22;58645;43.068;25.610;2023-02-25T03:21:37;9.30;99.90
70986;DHT22;58645;43.068;25.610;2023-02-25T03:24:10;9.30;99.90
70986;DHT22;58645;43.068;25.610;2023-02-25T03:26:38;9.40;99.90
70986;DHT22;58645;43.068;25.610;2023-02-25T03:29:14;9.30;99.90
70986;DHT22;58645;43.068;25.610;2023-02-25T03:34:27;9.30;99.90
70986;DHT22;58645;43.068;25.610;2023-02-25T03:37:00;9.30;99.90
70986;DHT22;58645;43.068;25.610;2023-02-25T03:39:34;9.30;99.90
70986;DHT22;58645;43.068;25.610;2023-02-25T03:42:02;9.20;99.90
70986;DHT22;58645;43.068;25.610;2023-02-25T03:44:39;9.20;99.90
70986;DHT22;58645;43.068;25.610;2023-02-25T03:47:08;9.20;99.90
70986;DHT22;58645;43.068;25.610;2023-02-25T03:52:59;9.20;99.90
70986;DHT22;58645;43.068;25.610;2023-02-25T03:55:25;9.20;99.90
70986;DHT22;58645;43.068;25.610;2023-02-25T03:57:54;9.10;99.90
70986;DHT22;58645;43.068;25.610;2023-02-25T04:00:21;9.10;99.90
70986;DHT22;58645;43.068;25.610;2023-02-25T04:02:48;9.10;99.90
70986;DHT22;58645;43.068;25.610;2023-02-25T04:05:16;9.10;99.90
70986;DHT22;58645;43.068;25.610;2023-02-25T04:07:42;9.10;99.90
70986;DHT22;58645;43.068;25.610;2023-02-25T04:10:09;9.10;99.90
70986;DHT22;58645;43.068;25.610;2023-02-25T04:12:37;9.10;99.90
70986;DHT22;58645;43.068;25.610;2023-02-25T04:15:03;9.00;99.90
70986;DHT22;58645;43.068;25.610;2023-02-25T04:17:31;9.00;99.90
70986;DHT22;58645;43.068;25.610;2023-02-25T04:19:57;9.00;99.90
70986;DHT22;58645;43.068;25.610;2023-02-25T04:22:23;8.90;99.90
70986;DHT22;58645;43.068;25.610;2023-02-25T04:24:49;8.80;99.90
70986;DHT22;58645;43.068;25.610;2023-02-25T04:27:15;8.80;99.90
70986;DHT22;58645;43.068;25.610;2023-02-25T04:29:44;8.70;99.90
70986;DHT22;58645;43.068;25.610;2023-02-25T04:32:10;8.70;99.90
70986;DHT22;58645;43.068;25.610;2023-02-25T04:34:36;8.70;99.90
70986;DHT22;58645;43.068;25.610;2023-02-25T04:37:03;8.60;99.90
70986;DHT22;58645;43.068;25.610;2023-02-25T04:39:32;8.60;99.90
70986;DHT22;58645;43.068;25.610;2023-02-25T04:41:58;8.50;99.90
70986;DHT22;58645;43.068;25.610;2023-02-25T04:44:25;8.40;99.90
70986;DHT22;58645;43.068;25.610;2023-02-25T04:46:51;8.40;99.90
70986;DHT22;58645;43.068;25.610;2023-02-25T04:49:18;8.30;99.90
70986;DHT22;58645;43.068;25.610;2023-02-25T04:51:45;8.30;99.90
70986;DHT22;58645;43.068;25.610;2023-02-25T04:54:11;8.40;99.90
70986;DHT22;58645;43.068;25.610;2023-02-25T04:56:38;8.40;99.90
70986;DHT22;58645;43.068;25.610;2023-02-25T04:59:04;8.40;99.90
70986;DHT22;58645;43.068;25.610;2023-02-25T05:01:30;8.40;99.90
70986;DHT22;58645;43.068;25.610;2023-02-25T05:03:57;8.40;99.90
70986;DHT22;58645;43.068;25.610;2023-02-25T05:06:28;8.50;99.90
70986;DHT22;58645;43.068;25.610;2023-02-25T05:08:54;8.50;99.90
70986;DHT22;58645;43.068;25.610;2023-02-25T05:11:22;8.50;99.90
70986;DHT22;58645;43.068;25.610;2023-02-25T05:13:48;8.60;99.90
70986;DHT22;58645;43.068;25.610;2023-02-25T05:16:16;8.70;99.90
70986;DHT22;58645;43.068;25.610;2023-02-25T05:18:44;8.60;99.90
70986;DHT22;58645;43.068;25.610;2023-02-25T05:21:12;8.50;99.90
70986;DHT22;58645;43.068;25.610;2023-02-25T05:23:40;8.50;99.90
70986;DHT22;58645;43.068;25.610;2023-02-25T05:26:06;8.40;99.90
70986;DHT22;58645;43.068;25.610;2023-02-25T05:28:33;8.40;99.90
70986;DHT22;58645;43.068;25.610;2023-02-25T05:30:59;8.40;99.90
70986;DHT22;58645;43.068;25.610;2023-02-25T05:33:28;8.40;99.90
70986;DHT22;58645;43.068;25.610;2023-02-25T05:35:54;8.40;99.90
70986;DHT22;58645;43.068;25.610;2023-02-25T05:38:20;8.50;99.90
70986;DHT22;58645;43.068;25.610;2023-02-25T05:40:45;8.50;99.90
70986;DHT22;58645;43.068;25.610;2023-02-25T05:43:11;8.60;99.90
70986;DHT22;58645;43.068;25.610;2023-02-25T05:45:38;8.60;99.90
70986;DHT22;58645;43.068;25.610;2023-02-25T05:48:03;8.80;99.90
70986;DHT22;58645;43.068;25.610;2023-02-25T05:50:29;9.10;99.90
70986;DHT22;58645;43.068;25.610;2023-02-25T05:52:59;9.30;99.90
70986;DHT22;58645;43.068;25.610;2023-02-25T05:55:25;10.20;99.90
70986;DHT22;58645;43.068;25.610;2023-02-25T05:57:51;10.90;99.90
70986;DHT22;58645;43.068;25.610;2023-02-25T06:00:17;11.60;97.10
70986;DHT22;58645;43.068;25.610;2023-02-25T06:02:46;12.10;91.20
70986;DHT22;58645;43.068;25.610;2023-02-25T06:05:12;12.60;89.90
70986;DHT22;58645;43.068;25.610;2023-02-25T06:07:38;13.30;84.50
70986;DHT22;58645;43.068;25.610;2023-02-25T06:10:04;13.80;78.60
70986;DHT22;58645;43.068;25.610;2023-02-25T06:12:32;14.30;75.70
70986;DHT22;58645;43.068;25.610;2023-02-25T06:14:58;14.90;73.00
70986;DHT22;58645;43.068;25.610;2023-02-25T06:17:24;15.50;68.80
70986;DHT22;58645;43.068;25.610;2023-02-25T06:19:51;16.00;68.30
70986;DHT22;58645;43.068;25.610;2023-02-25T06:22:21;16.80;63.60
70986;DHT22;58645;43.068;25.610;2023-02-25T06:24:47;17.30;61.10
70986;DHT22;58645;43.068;25.610;2023-02-25T06:27:14;17.60;59.80
70986;DHT22;58645;43.068;25.610;2023-02-25T06:29:40;18.20;56.70
70986;DHT22;58645;43.068;25.610;2023-02-25T06:32:10;18.70;55.30
70986;DHT22;58645;43.068;25.610;2023-02-25T06:34:37;18.80;53.60
70986;DHT22;58645;43.068;25.610;2023-02-25T06:37:02;19.00;52.60
70986;DHT22;58645;43.068;25.610;2023-02-25T06:39:28;19.70;51.30
70986;DHT22;58645;43.068;25.610;2023-02-25T06:41:54;20.00;49.00
70986;DHT22;58645;43.068;25.610;2023-02-25T06:44:20;20.00;48.40
70986;DHT22;58645;43.068;25.610;2023-02-25T06:46:49;20.30;48.60
70986;DHT22;58645;43.068;25.610;2023-02-25T06:49:15;20.40;47.30
70986;DHT22;58645;43.068;25.610;2023-02-25T06:51:41;21.00;47.00
70986;DHT22;58645;43.068;25.610;2023-02-25T06:54:07;21.70;45.70
70986;DHT22;58645;43.068;25.610;2023-02-25T06:56:32;22.10;44.00
70986;DHT22;58645;43.068;25.610;2023-02-25T06:58:58;21.70;43.50
70986;DHT22;58645;43.068;25.610;2023-02-25T07:01:24;21.70;44.40
70986;DHT22;58645;43.068;25.610;2023-02-25T07:03:51;21.40;43.50
70986;DHT22;58645;43.068;25.610;2023-02-25T07:06:17;21.60;43.70
70986;DHT22;58645;43.068;25.610;2023-02-25T07:08:44;21.80;43.70
70986;DHT22;58645;43.068;25.610;2023-02-25T07:13:47;21.00;44.90
70986;DHT22;58645;43.068;25.610;2023-02-25T07:16:13;21.30;45.50
70986;DHT22;58645;43.068;25.610;2023-02-25T07:18:40;22.00;43.40
70986;DHT22;58645;43.068;25.610;2023-02-25T07:21:06;21.90;42.80
70986;DHT22;58645;43.068;25.610;2023-02-25T07:23:32;21.20;43.20
70986;DHT22;58645;43.068;25.610;2023-02-25T07:26:04;20.80;44.50
70986;DHT22;58645;43.068;25.610;2023-02-25T07:28:29;20.90;45.00
70986;DHT22;58645;43.068;25.610;2023-02-25T07:30:58;21.20;43.40
70986;DHT22;58645;43.068;25.610;2023-02-25T07:33:24;22.20;42.00
70986;DHT22;58645;43.068;25.610;2023-02-25T07:35:53;23.40;40.60
70986;DHT22;58645;43.068;25.610;2023-02-25T07:38:19;23.70;39.70
70986;DHT22;58645;43.068;25.610;2023-02-25T07:40:45;23.80;38.50
70986;DHT22;58645;43.068;25.610;2023-02-25T07:43:10;23.70;38.90
70986;DHT22;58645;43.068;25.610;2023-02-25T07:45:36;23.20;39.50
70986;DHT22;58645;43.068;25.610;2023-02-25T07:48:02;22.50;41.20
70986;DHT22;58645;43.068;25.610;2023-02-25T07:50:28;22.20;41.10
70986;DHT22;58645;43.068;25.610;2023-02-25T07:52:54;22.10;41.90
70986;DHT22;58645;43.068;25.610;2023-02-25T07:55:19;22.00;41.30
70986;DHT22;58645;43.068;25.610;2023-02-25T07:57:45;22.50;40.90
70986;DHT22;58645;43.068;25.610;2023-02-25T08:00:10;23.20;39.90
70986;DHT22;58645;43.068;25.610;2023-02-25T08:02:37;23.20;39.20
70986;DHT22;58645;43.068;25.610;2023-02-25T08:05:02;22.90;40.60
70986;DHT22;58645;43.068;25.610;2023-02-25T08:07:29;22.90;40.10
70986;DHT22;58645;43.068;25.610;2023-02-25T08:09:55;22.60;39.70
70986;DHT22;58645;43.068;25.610;2023-02-25T08:12:21;22.50;40.30
70986;DHT22;58645;43.068;25.610;2023-02-25T08:14:47;22.60;40.80
70986;DHT22;58645;43.068;25.610;2023-02-25T08:17:13;22.90;39.10
70986;DHT22;58645;43.068;25.610;2023-02-25T08:19:39;23.20;39.10
70986;DHT22;58645;43.068;25.610;2023-02-25T08:22:06;23.20;39.10
70986;DHT22;58645;43.068;25.610;2023-02-25T08:24:39;23.10;39.30
70986;DHT22;58645;43.068;25.610;2023-02-25T08:27:06;22.90;38.80
70986;DHT22;58645;43.068;25.610;2023-02-25T08:29:36;22.20;40.00
70986;DHT22;58645;43.068;25.610;2023-02-25T08:32:04;21.80;40.80
70986;DHT22;58645;43.068;25.610;2023-02-25T08:34:30;21.60;42.10
70986;DHT22;58645;43.068;25.610;2023-02-25T08:36:55;21.90;42.50
70986;DHT22;58645;43.068;25.610;2023-02-25T08:39:21;22.30;40.40
70986;DHT22;58645;43.068;25.610;2023-02-25T08:41:47;22.80;39.40
70986;DHT22;58645;43.068;25.610;2023-02-25T08:44:13;23.10;39.50
70986;DHT22;58645;43.068;25.610;2023-02-25T08:46:38;23.70;37.60
70986;DHT22;58645;43.068;25.610;2023-02-25T08:49:04;24.60;36.20
70986;DHT22;58645;43.068;25.610;2023-02-25T08:51:31;24.70;35.50
70986;DHT22;58645;43.068;25.610;2023-02-25T08:53:59;24.30;35.70
70986;DHT22;58645;43.068;25.610;2023-02-25T08:56:26;25.10;34.60
70986;DHT22;58645;43.068;25.610;2023-02-25T08:58:53;25.40;33.80
70986;DHT22;58645;43.068;25.610;2023-02-25T09:01:19;25.90;32.20
70986;DHT22;58645;43.068;25.610;2023-02-25T09:03:47;25.50;32.50
70986;DHT22;58645;43.068;25.610;2023-02-25T09:06:16;24.70;33.90
70986;DHT22;58645;43.068;25.610;2023-02-25T09:08:41;24.40;33.70
70986;DHT22;58645;43.068;25.610;2023-02-25T09:11:07;24.30;33.80
70986;DHT22;58645;43.068;25.610;2023-02-25T09:13:33;24.00;33.90
70986;DHT22;58645;43.068;25.610;2023-02-25T09:15:59;24.50;33.50
70986;DHT22;58645;43.068;25.610;2023-02-25T09:18:26;25.20;31.90
70986;DHT22;58645;43.068;25.610;2023-02-25T09:20:51;25.00;32.30
70986;DHT22;58645;43.068;25.610;2023-02-25T09:23:17;24.50;31.50
70986;DHT22;58645;43.068;25.610;2023-02-25T09:25:43;24.30;32.70
70986;DHT22;58645;43.068;25.610;2023-02-25T09:28:11;23.90;32.50
70986;DHT22;58645;43.068;25.610;2023-02-25T09:30:37;24.00;32.00
70986;DHT22;58645;43.068;25.610;2023-02-25T09:33:02;24.80;31.00
70986;DHT22;58645;43.068;25.610;2023-02-25T09:35:28;25.60;29.00
70986;DHT22;58645;43.068;25.610;2023-02-25T09:37:54;26.40;28.50
70986;DHT22;58645;43.068;25.610;2023-02-25T09:40:20;26.50;26.80
70986;DHT22;58645;43.068;25.610;2023-02-25T09:43:03;25.90;27.00
70986;DHT22;58645;43.068;25.610;2023-02-25T09:45:33;25.40;26.40
70986;DHT22;58645;43.068;25.610;2023-02-25T09:48:03;24.70;27.00
70986;DHT22;58645;43.068;25.610;2023-02-25T09:50:43;24.10;27.50
70986;DHT22;58645;43.068;25.610;2023-02-25T09:55:52;24.00;27.20
70986;DHT22;58645;43.068;25.610;2023-02-25T09:58:43;24.80;26.80
70986;DHT22;58645;43.068;25.610;2023-02-25T10:09:00;26.90;22.10
70986;DHT22;58645;43.068;25.610;2023-02-25T10:18:16;28.30;20.70
70986;DHT22;58645;43.068;25.610;2023-02-25T10:23:23;24.90;24.80
70986;DHT22;58645;43.068;25.610;2023-02-25T10:28:22;24.20;26.10
70986;DHT22;58645;43.068;25.610;2023-02-25T10:31:03;24.90;25.40
70986;DHT22;58645;43.068;25.610;2023-02-25T10:33:34;25.70;24.00
70986;DHT22;58645;43.068;25.610;2023-02-25T10:36:32;26.50;23.10
70986;DHT22;58645;43.068;25.610;2023-02-25T10:39:00;26.90;22.50
70986;DHT22;58645;43.068;25.610;2023-02-25T10:41:26;27.70;22.80
70986;DHT22;58645;43.068;25.610;2023-02-25T10:43:53;28.40;20.80
70986;DHT22;58645;43.068;25.610;2023-02-25T10:48:59;27.40;21.20
70986;DHT22;58645;43.068;25.610;2023-02-25T10:51:26;27.60;21.30
70986;DHT22;58645;43.068;25.610;2023-02-25T10:56:30;26.20;23.00
70986;DHT22;58645;43.068;25.610;2023-02-25T10:59:26;25.20;24.60
70986;DHT22;58645;43.068;25.610;2023-02-25T11:01:53;24.80;25.80
70986;DHT22;58645;43.068;25.610;2023-02-25T11:04:27;24.60;26.00
70986;DHT22;58645;43.068;25.610;2023-02-25T11:06:55;24.50;26.20
70986;DHT22;58645;43.068;25.610;2023-02-25T11:12:08;24.40;26.40
70986;DHT22;58645;43.068;25.610;2023-02-25T11:14:35;24.40;26.90
70986;DHT22;58645;43.068;25.610;2023-02-25T11:17:21;24.90;26.00
70986;DHT22;58645;43.068;25.610;2023-02-25T11:19:58;25.50;25.90
70986;DHT22;58645;43.068;25.610;2023-02-25T11:22:51;25.30;25.40
70986;DHT22;58645;43.068;25.610;2023-02-25T11:25:36;25.20;25.20
70986;DHT22;58645;43.068;25.610;2023-02-25T11:28:04;25.10;26.10
70986;DHT22;58645;43.068;25.610;2023-02-25T11:30:37;25.20;26.40
70986;DHT22;58645;43.068;25.610;2023-02-25T11:33:07;25.40;25.20
70986;DHT22;58645;43.068;25.610;2023-02-25T11:35:40;25.40;24.40
70986;DHT22;58645;43.068;25.610;2023-02-25T11:38:26;24.40;25.70
70986;DHT22;58645;43.068;25.610;2023-02-25T11:40:52;23.60;26.80
70986;DHT22;58645;43.068;25.610;2023-02-25T11:48:21;22.60;28.30
70986;DHT22;58645;43.068;25.610;2023-02-25T11:56:35;22.00;29.50
70986;DHT22;58645;43.068;25.610;2023-02-25T11:59:37;21.70;29.90
70986;DHT22;58645;43.068;25.610;2023-02-25T12:05:01;21.50;30.80
70986;DHT22;58645;43.068;25.610;2023-02-25T12:10:32;21.20;31.70
70986;DHT22;58645;43.068;25.610;2023-02-25T12:16:28;20.80;32.20
70986;DHT22;58645;43.068;25.610;2023-02-25T12:41:45;19.90;36.80
70986;DHT22;58645;43.068;25.610;2023-02-25T12:47:04;19.70;37.30
70986;DHT22;58645;43.068;25.610;2023-02-25T12:49:58;19.60;37.40
70986;DHT22;58645;43.068;25.610;2023-02-25T12:58:39;19.40;38.60
70986;DHT22;58645;43.068;25.610;2023-02-25T13:04:03;19.20;39.10
70986;DHT22;58645;43.068;25.610;2023-02-25T13:12:40;19.50;38.60
70986;DHT22;58645;43.068;25.610;2023-02-25T13:20:57;19.50;37.90
70986;DHT22;58645;43.068;25.610;2023-02-25T13:26:44;19.40;37.70
70986;DHT22;58645;43.068;25.610;2023-02-25T13:32:53;19.40;37.90
70986;DHT22;58645;43.068;25.610;2023-02-25T13:35:43;19.30;38.10
70986;DHT22;58645;43.068;25.610;2023-02-25T13:44:21;19.20;37.90
70986;DHT22;58645;43.068;25.610;2023-02-25T13:47:02;19.30;38.10
70986;DHT22;58645;43.068;25.610;2023-02-25T13:52:46;19.20;38.50
70986;DHT22;58645;43.068;25.610;2023-02-25T13:55:36;19.20;38.90
70986;DHT22;58645;43.068;25.610;2023-02-25T13:58:22;19.10;39.20
70986;DHT22;58645;43.068;25.610;2023-02-25T14:01:03;19.00;39.30
70986;DHT22;58645;43.068;25.610;2023-02-25T14:07:09;19.00;39.80
70986;DHT22;58645;43.068;25.610;2023-02-25T14:12:22;18.90;40.40
70986;DHT22;58645;43.068;25.610;2023-02-25T14:23:45;18.80;40.70
70986;DHT22;58645;43.068;25.610;2023-02-25T14:26:24;18.90;40.90
70986;DHT22;58645;43.068;25.610;2023-02-25T14:29:17;18.90;40.90
70986;DHT22;58645;43.068;25.610;2023-02-25T14:34:57;18.80;41.10
70986;DHT22;58645;43.068;25.610;2023-02-25T14:38:11;18.70;41.10
70986;DHT22;58645;43.068;25.610;2023-02-25T14:40:28;18.70;41.30
70986;DHT22;58645;43.068;25.610;2023-02-25T14:43:28;18.70;41.30
70986;DHT22;58645;43.068;25.610;2023-02-25T14:48:33;18.70;41.30
70986;DHT22;58645;43.068;25.610;2023-02-25T14:51:28;18.70;41.40
70986;DHT22;58645;43.068;25.610;2023-02-25T14:57:13;18.60;41.40
70986;DHT22;58645;43.068;25.610;2023-02-25T15:08:34;18.50;41.90
70986;DHT22;58645;43.068;25.610;2023-02-25T15:14:07;18.50;42.00
70986;DHT22;58645;43.068;25.610;2023-02-25T15:21:46;18.40;42.20
70986;DHT22;58645;43.068;25.610;2023-02-25T15:24:35;18.30;42.20
70986;DHT22;58645;43.068;25.610;2023-02-25T15:27:02;18.30;42.30
70986;DHT22;58645;43.068;25.610;2023-02-25T15:29:56;18.20;42.30
70986;DHT22;58645;43.068;25.610;2023-02-25T15:32:28;18.20;42.40
70986;DHT22;58645;43.068;25.610;2023-02-25T15:35:06;18.20;42.70
70986;DHT22;58645;43.068;25.610;2023-02-25T15:45:52;18.10;42.60
70986;DHT22;58645;43.068;25.610;2023-02-25T15:48:39;18.10;42.80
70986;DHT22;58645;43.068;25.610;2023-02-25T15:51:11;18.10;42.70
70986;DHT22;58645;43.068;25.610;2023-02-25T15:53:56;18.10;42.90
70986;DHT22;58645;43.068;25.610;2023-02-25T15:56:28;18.10;42.80
70986;DHT22;58645;43.068;25.610;2023-02-25T15:58:58;18.00;42.80
70986;DHT22;58645;43.068;25.610;2023-02-25T16:01:37;18.00;42.90
70986;DHT22;58645;43.068;25.610;2023-02-25T16:07:13;17.90;43.30
70986;DHT22;58645;43.068;25.610;2023-02-25T16:09:44;17.90;43.40
70986;DHT22;58645;43.068;25.610;2023-02-25T16:12:13;17.90;43.50
70986;DHT22;58645;43.068;25.610;2023-02-25T16:14:39;17.90;43.50
70986;DHT22;58645;43.068;25.610;2023-02-25T16:17:33;17.80;43.60
70986;DHT22;58645;43.068;25.610;2023-02-25T16:20:16;17.70;43.80
70986;DHT22;58645;43.068;25.610;2023-02-25T16:22:45;17.70;43.80
70986;DHT22;58645;43.068;25.610;2023-02-25T16:25:17;17.70;43.90
70986;DHT22;58645;43.068;25.610;2023-02-25T16:30:22;17.70;43.90
70986;DHT22;58645;43.068;25.610;2023-02-25T16:33:03;17.70;43.90
70986;DHT22;58645;43.068;25.610;2023-02-25T16:41:00;17.50;44.40
70986;DHT22;58645;43.068;25.610;2023-02-25T16:43:36;17.50;44.50
70986;DHT22;58645;43.068;25.610;2023-02-25T16:46:05;17.40;44.60
70986;DHT22;58645;43.068;25.610;2023-02-25T16:48:47;17.40;44.70
70986;DHT22;58645;43.068;25.610;2023-02-25T16:51:35;17.40;44.60
70986;DHT22;58645;43.068;25.610;2023-02-25T16:54:13;17.40;45.00
70986;DHT22;58645;43.068;25.610;2023-02-25T16:56:43;17.30;45.10
70986;DHT22;58645;43.068;25.610;2023-02-25T16:59:18;17.20;45.40
70986;DHT22;58645;43.068;25.610;2023-02-25T17:01:55;17.20;45.50
70986;DHT22;58645;43.068;25.610;2023-02-25T17:04:33;17.10;45.80
70986;DHT22;58645;43.068;25.610;2023-02-25T17:07:24;17.10;45.90
70986;DHT22;58645;43.068;25.610;2023-02-25T17:09:52;17.00;46.00
70986;DHT22;58645;43.068;25.610;2023-02-25T17:12:38;17.00;46.30
70986;DHT22;58645;43.068;25.610;2023-02-25T17:15:16;17.00;46.70
70986;DHT22;58645;43.068;25.610;2023-02-25T17:17:45;17.00;46.60
70986;DHT22;58645;43.068;25.610;2023-02-25T17:20:16;17.00;46.70
70986;DHT22;58645;43.068;25.610;2023-02-25T17:22:44;17.00;46.90
70986;DHT22;58645;43.068;25.610;2023-02-25T17:25:14;17.00;47.10
70986;DHT22;58645;43.068;25.610;2023-02-25T17:27:43;17.00;47.50
70986;DHT22;58645;43.068;25.610;2023-02-25T17:30:40;17.00;47.90
70986;DHT22;58645;43.068;25.610;2023-02-25T17:33:19;17.00;48.30
70986;DHT22;58645;43.068;25.610;2023-02-25T17:35:47;17.00;48.40
70986;DHT22;58645;43.068;25.610;2023-02-25T17:38:18;17.00;48.50
70986;DHT22;58645;43.068;25.610;2023-02-25T17:40:45;17.00;48.70
70986;DHT22;58645;43.068;25.610;2023-02-25T17:43:17;16.90;48.90
70986;DHT22;58645;43.068;25.610;2023-02-25T17:48:23;16.80;48.90
70986;DHT22;58645;43.068;25.610;2023-02-25T17:51:04;16.80;49.00
70986;DHT22;58645;43.068;25.610;2023-02-25T17:53:37;16.80;49.30
70986;DHT22;58645;43.068;25.610;2023-02-25T17:56:16;16.70;49.60
70986;DHT22;58645;43.068;25.610;2023-02-25T17:58:44;16.70;49.70
70986;DHT22;58645;43.068;25.610;2023-02-25T18:01:28;16.70;50.10
70986;DHT22;58645;43.068;25.610;2023-02-25T18:03:56;16.60;50.50
70986;DHT22;58645;43.068;25.610;2023-02-25T18:06:53;16.60;51.10
70986;DHT22;58645;43.068;25.610;2023-02-25T18:09:36;16.60;51.70
70986;DHT22;58645;43.068;25.610;2023-02-25T18:12:05;16.60;52.10
70986;DHT22;58645;43.068;25.610;2023-02-25T18:14:37;16.60;52.80
70986;DHT22;58645;43.068;25.610;2023-02-25T18:19:59;16.40;54.00
70986;DHT22;58645;43.068;25.610;2023-02-25T18:22:32;16.40;55.70
70986;DHT22;58645;43.068;25.610;2023-02-25T18:25:01;16.30;56.50
70986;DHT22;58645;43.068;25.610;2023-02-25T18:27:31;16.20;57.00
70986;DHT22;58645;43.068;25.610;2023-02-25T18:30:14;16.20;58.10
70986;DHT22;58645;43.068;25.610;2023-02-25T18:32:40;16.10;58.90
70986;DHT22;58645;43.068;25.610;2023-02-25T18:35:06;16.10;59.10
70986;DHT22;58645;43.068;25.610;2023-02-25T18:37:33;16.10;59.40
70986;DHT22;58645;43.068;25.610;2023-02-25T18:39:59;16.00;59.70
70986;DHT22;58645;43.068;25.610;2023-02-25T18:42:25;15.90;60.00
70986;DHT22;58645;43.068;25.610;2023-02-25T18:44:50;15.90;60.70
70986;DHT22;58645;43.068;25.610;2023-02-25T18:47:17;15.80;60.80
70986;DHT22;58645;43.068;25.610;2023-02-25T18:49:43;15.80;61.30
70986;DHT22;58645;43.068;25.610;2023-02-25T18:52:22;15.70;61.60
70986;DHT22;58645;43.068;25.610;2023-02-25T18:54:49;15.70;61.90
70986;DHT22;58645;43.068;25.610;2023-02-25T18:57:24;15.70;62.00
70986;DHT22;58645;43.068;25.610;2023-02-25T18:59:51;15.70;62.00
70986;DHT22;58645;43.068;25.610;2023-02-25T19:04:52;15.60;61.90
70986;DHT22;58645;43.068;25.610;2023-02-25T19:07:24;15.60;62.00
70986;DHT22;58645;43.068;25.610;2023-02-25T19:09:50;15.60;62.00
70986;DHT22;58645;43.068;25.610;2023-02-25T19:12:17;15.50;62.20
70986;DHT22;58645;43.068;25.610;2023-02-25T19:14:44;15.50;62.10
70986;DHT22;58645;43.068;25.610;2023-02-25T19:17:15;15.50;62.40
70986;DHT22;58645;43.068;25.610;2023-02-25T19:19:42;15.50;62.40